sensor_id;sensor_type;location;lat;lon;timestamp;P1;durP1;ratioP1;P2;durP2;ratioP2
38653;SDS011;24413;52.450;20.706;2023-03-01T02:12:28;64.38;;;33.60;;
38653;SDS011;24413;52.450;20.706;2023-03-01T02:14:54;73.70;;;34.33;;
38653;SDS011;24413;52.450;20.706;2023-03-01T02:17:19;70.13;;;35.17;;
38653;SDS011;24413;52.450;20.706;2023-03-01T02:20:08;74.38;;;34.35;;
38653;SDS011;24413;52.450;20.706;2023-03-01T02:22:35;65.65;;;31.23;;
38653;SDS011;24413;52.450;20.706;2023-03-01T02:27:30;70.43;;;34.42;;
38653;SDS011;24413;52.450;20.706;2023-03-01T02:29:58;57.22;;;32.35;;
38653;SDS011;24413;52.450;20.706;2023-03-01T02:32:23;67.53;;;32.38;;
38653;SDS011;24413;52.450;20.706;2023-03-01T02:34:53;67.22;;;32.38;;
38653;SDS011;24413;52.450;20.706;2023-03-01T02:37:19;64.53;;;32.30;;
38653;SDS011;24413;52.450;20.706;2023-03-01T02:39:50;60.38;;;32.13;;
38653;SDS011;24413;52.450;20.706;2023-03-01T02:42:21;56.70;;;29.90;;
38653;SDS011;24413;52.450;20.706;2023-03-01T02:44:49;62.33;;;31.33;;
38653;SDS011;24413;52.450;20.706;2023-03-01T02:47:14;67.68;;;32.15;;
38653;SDS011;24413;52.450;20.706;2023-03-01T02:49:39;61.10;;;30.27;;
38653;SDS011;24413;52.450;20.706;2023-03-01T02:54:36;64.55;;;31.08;;
38653;SDS011;24413;52.450;20.706;2023-03-01T02:57:05;60.92;;;33.00;;
38653;SDS011;24413;52.450;20.706;2023-03-01T02:59:31;59.45;;;30.73;;
38653;SDS011;24413;52.450;20.706;2023-03-01T03:01:57;61.03;;;31.33;;
38653;SDS011;24413;52.450;20.706;2023-03-01T03:04:27;64.40;;;32.00;;
38653;SDS011;24413;52.450;20.706;2023-03-01T03:06:53;62.70;;;30.55;;
38653;SDS011;24413;52.450;20.706;2023-03-01T03:09:18;58.10;;;32.97;;
38653;SDS011;24413;52.450;20.706;2023-03-01T03:11:43;62.45;;;32.60;;
38653;SDS011;24413;52.450;20.706;2023-03-01T03:14:09;64.50;;;33.22;;
38653;SDS011;24413;52.450;20.706;2023-03-01T03:16:44;68.82;;;33.10;;
38653;SDS011;24413;52.450;20.706;2023-03-01T03:19:10;63.08;;;30.77;;
38653;SDS011;24413;52.450;20.706;2023-03-01T03:21:36;65.25;;;33.10;;
38653;SDS011;24413;52.450;20.706;2023-03-01T03:24:04;65.40;;;32.50;;
38653;SDS011;24413;52.450;20.706;2023-03-01T03:26:30;64.10;;;32.92;;
38653;SDS011;24413;52.450;20.706;2023-03-01T03:28:55;64.50;;;31.65;;
38653;SDS011;24413;52.450;20.706;2023-03-01T03:31:21;64.70;;;32.30;;
38653;SDS011;24413;52.450;20.706;2023-03-01T03:33:46;60.25;;;33.28;;
38653;SDS011;24413;52.450;20.706;2023-03-01T03:36:19;66.90;;;32.38;;
38653;SDS011;24413;52.450;20.706;2023-03-01T03:38:44;65.65;;;32.95;;
38653;SDS011;24413;52.450;20.706;2023-03-01T03:41:11;59.47;;;32.25;;
38653;SDS011;24413;52.450;20.706;2023-03-01T03:43:38;62.55;;;34.38;;
38653;SDS011;24413;52.450;20.706;2023-03-01T03:46:07;63.22;;;34.03;;
38653;SDS011;24413;52.450;20.706;2023-03-01T03:48:37;60.40;;;33.97;;
38653;SDS011;24413;52.450;20.706;2023-03-01T03:51:05;69.25;;;36.08;;
38653;SDS011;24413;52.450;20.706;2023-03-01T03:53:31;72.70;;;38.38;;
38653;SDS011;24413;52.450;20.706;2023-03-01T03:55:56;69.22;;;34.67;;
38653;SDS011;24413;52.450;20.706;2023-03-01T03:58:22;70.78;;;33.83;;
38653;SDS011;24413;52.450;20.706;2023-03-01T04:00:49;72.88;;;35.47;;
38653;SDS011;24413;52.450;20.706;2023-03-01T04:03:15;69.75;;;34.45;;
38653;SDS011;24413;52.450;20.706;2023-03-01T04:05:40;64.55;;;34.45;;
38653;SDS011;24413;52.450;20.706;2023-03-01T04:08:06;75.88;;;35.25;;
38653;SDS011;24413;52.450;20.706;2023-03-01T04:13:01;65.55;;;32.17;;
38653;SDS011;24413;52.450;20.706;2023-03-01T04:15:26;71.82;;;34.70;;
38653;SDS011;24413;52.450;20.706;2023-03-01T04:17:52;65.20;;;33.05;;
38653;SDS011;24413;52.450;20.706;2023-03-01T04:20:19;72.35;;;35.25;;
38653;SDS011;24413;52.450;20.706;2023-03-01T04:22:58;62.00;;;33.17;;
38653;SDS011;24413;52.450;20.706;2023-03-01T04:25:23;64.68;;;32.42;;
38653;SDS011;24413;52.450;20.706;2023-03-01T04:27:49;62.08;;;33.92;;
38653;SDS011;24413;52.450;20.706;2023-03-01T04:30:15;61.13;;;32.03;;
38653;SDS011;24413;52.450;20.706;2023-03-01T04:32:40;65.80;;;32.65;;
38653;SDS011;24413;52.450;20.706;2023-03-01T04:35:05;69.25;;;32.22;;
38653;SDS011;24413;52.450;20.706;2023-03-01T04:37:31;66.68;;;33.20;;
38653;SDS011;24413;52.450;20.706;2023-03-01T04:39:56;70.45;;;34.35;;
38653;SDS011;24413;52.450;20.706;2023-03-01T04:42:22;64.80;;;32.40;;
38653;SDS011;24413;52.450;20.706;2023-03-01T04:44:47;71.60;;;34.47;;
38653;SDS011;24413;52.450;20.706;2023-03-01T04:47:16;71.93;;;35.58;;
38653;SDS011;24413;52.450;20.706;2023-03-01T04:49:41;70.20;;;35.92;;
38653;SDS011;24413;52.450;20.706;2023-03-01T04:52:07;71.28;;;36.13;;
38653;SDS011;24413;52.450;20.706;2023-03-01T04:54:32;74.28;;;33.80;;
38653;SDS011;24413;52.450;20.706;2023-03-01T04:56:59;68.18;;;32.40;;
38653;SDS011;24413;52.450;20.706;2023-03-01T04:59:24;65.07;;;32.95;;
38653;SDS011;24413;52.450;20.706;2023-03-01T05:01:50;68.72;;;33.53;;
38653;SDS011;24413;52.450;20.706;2023-03-01T05:04:16;72.43;;;32.70;;
38653;SDS011;24413;52.450;20.706;2023-03-01T05:06:41;64.05;;;33.15;;
38653;SDS011;24413;52.450;20.706;2023-03-01T05:09:07;59.50;;;31.38;;
38653;SDS011;24413;52.450;20.706;2023-03-01T05:11:32;70.55;;;33.20;;
38653;SDS011;24413;52.450;20.706;2023-03-01T05:14:01;78.22;;;35.88;;
38653;SDS011;24413;52.450;20.706;2023-03-01T05:16:26;71.63;;;37.38;;
38653;SDS011;24413;52.450;20.706;2023-03-01T05:18:51;68.70;;;35.88;;
38653;SDS011;24413;52.450;20.706;2023-03-01T05:21:17;70.00;;;34.40;;
38653;SDS011;24413;52.450;20.706;2023-03-01T05:23:42;67.88;;;36.10;;
38653;SDS011;24413;52.450;20.706;2023-03-01T05:26:08;68.05;;;34.55;;
38653;SDS011;24413;52.450;20.706;2023-03-01T05:28:34;73.80;;;33.70;;
38653;SDS011;24413;52.450;20.706;2023-03-01T05:30:59;80.43;;;34.50;;
38653;SDS011;24413;52.450;20.706;2023-03-01T05:33:25;67.97;;;33.17;;
38653;SDS011;24413;52.450;20.706;2023-03-01T05:35:50;71.85;;;32.42;;
38653;SDS011;24413;52.450;20.706;2023-03-01T05:38:16;74.05;;;36.20;;
38653;SDS011;24413;52.450;20.706;2023-03-01T05:40:42;116.38;;;56.70;;
38653;SDS011;24413;52.450;20.706;2023-03-01T05:43:08;100.90;;;55.38;;
38653;SDS011;24413;52.450;20.706;2023-03-01T05:45:35;72.65;;;38.55;;
38653;SDS011;24413;52.450;20.706;2023-03-01T05:48:00;88.78;;;46.95;;
38653;SDS011;24413;52.450;20.706;2023-03-01T05:50:26;78.30;;;42.88;;
38653;SDS011;24413;52.450;20.706;2023-03-01T05:52:57;80.72;;;41.03;;
38653;SDS011;24413;52.450;20.706;2023-03-01T05:55:23;76.22;;;35.53;;
38653;SDS011;24413;52.450;20.706;2023-03-01T05:57:48;69.93;;;34.30;;
38653;SDS011;24413;52.450;20.706;2023-03-01T06:00:15;70.82;;;35.00;;
38653;SDS011;24413;52.450;20.706;2023-03-01T06:02:41;69.72;;;34.95;;
38653;SDS011;24413;52.450;20.706;2023-03-01T06:05:08;64.72;;;34.25;;
38653;SDS011;24413;52.450;20.706;2023-03-01T14:59:26;37.40;;;23.42;;
38653;SDS011;24413;52.450;20.706;2023-03-01T15:01:51;31.60;;;19.52;;
38653;SDS011;24413;52.450;20.706;2023-03-01T15:04:18;34.03;;;19.85;;
38653;SDS011;24413;52.450;20.706;2023-03-01T15:06:43;33.20;;;20.75;;
38653;SDS011;24413;52.450;20.706;2023-03-01T15:09:14;47.30;;;22.58;;
38653;SDS011;24413;52.450;20.706;2023-03-01T15:11:40;34.70;;;19.63;;
38653;SDS011;24413;52.450;20.706;2023-03-01T15:19:18;46.35;;;27.73;;
38653;SDS011;24413;52.450;20.706;2023-03-01T15:21:44;47.35;;;25.55;;
38653;SDS011;24413;52.450;20.706;2023-03-01T15:26:44;39.22;;;21.10;;
38653;SDS011;24413;52.450;20.706;2023-03-01T15:29:16;33.85;;;21.10;;
38653;SDS011;24413;52.450;20.706;2023-03-01T15:31:42;41.38;;;22.08;;
38653;SDS011;24413;52.450;20.706;2023-03-01T15:36:45;43.67;;;24.65;;
38653;SDS011;24413;52.450;20.706;2023-03-01T15:44:37;33.95;;;22.25;;
38653;SDS011;24413;52.450;20.706;2023-03-01T15:47:04;35.95;;;20.05;;
38653;SDS011;24413;52.450;20.706;2023-03-01T15:49:42;42.08;;;28.67;;
38653;SDS011;24413;52.450;20.706;2023-03-01T15:55:05;41.42;;;22.98;;
38653;SDS011;24413;52.450;20.706;2023-03-01T15:57:31;41.45;;;24.73;;
38653;SDS011;24413;52.450;20.706;2023-03-01T15:59:56;51.53;;;28.60;;
38653;SDS011;24413;52.450;20.706;2023-03-01T16:02:22;71.72;;;40.42;;
38653;SDS011;24413;52.450;20.706;2023-03-01T16:04:48;116.63;;;62.97;;
38653;SDS011;24413;52.450;20.706;2023-03-01T16:07:16;164.95;;;81.28;;
38653;SDS011;24413;52.450;20.706;2023-03-01T16:09:41;126.07;;;61.65;;
38653;SDS011;24413;52.450;20.706;2023-03-01T16:12:11;281.27;;;140.02;;
38653;SDS011;24413;52.450;20.706;2023-03-01T16:19:48;185.05;;;92.78;;
38653;SDS011;24413;52.450;20.706;2023-03-01T16:22:13;102.93;;;56.22;;
38653;SDS011;24413;52.450;20.706;2023-03-01T16:24:39;120.55;;;62.92;;
38653;SDS011;24413;52.450;20.706;2023-03-01T16:27:05;197.50;;;101.60;;
38653;SDS011;24413;52.450;20.706;2023-03-01T16:29:31;259.67;;;131.95;;
38653;SDS011;24413;52.450;20.706;2023-03-01T16:31:56;207.45;;;101.93;;
38653;SDS011;24413;52.450;20.706;2023-03-01T16:34:21;135.75;;;67.00;;
38653;SDS011;24413;52.450;20.706;2023-03-01T16:36:48;181.68;;;85.60;;
38653;SDS011;24413;52.450;20.706;2023-03-01T16:39:13;219.95;;;102.82;;
38653;SDS011;24413;52.450;20.706;2023-03-01T16:41:38;354.08;;;197.45;;
38653;SDS011;24413;52.450;20.706;2023-03-01T16:44:04;635.05;;;331.45;;
38653;SDS011;24413;52.450;20.706;2023-03-01T16:46:29;291.75;;;133.75;;
38653;SDS011;24413;52.450;20.706;2023-03-01T16:48:55;551.60;;;287.52;;
38653;SDS011;24413;52.450;20.706;2023-03-01T16:51:20;450.95;;;229.15;;
38653;SDS011;24413;52.450;20.706;2023-03-01T16:53:46;632.33;;;376.55;;
38653;SDS011;24413;52.450;20.706;2023-03-01T16:56:12;968.25;;;629.65;;
38653;SDS011;24413;52.450;20.706;2023-03-01T16:58:38;729.90;;;522.33;;
38653;SDS011;24413;52.450;20.706;2023-03-01T17:35:49;133.63;;;77.30;;
38653;SDS011;24413;52.450;20.706;2023-03-01T17:43:25;203.15;;;122.22;;
38653;SDS011;24413;52.450;20.706;2023-03-01T17:45:51;219.55;;;121.93;;
38653;SDS011;24413;52.450;20.706;2023-03-01T17:48:16;203.63;;;114.55;;
38653;SDS011;24413;52.450;20.706;2023-03-01T17:50:42;184.20;;;101.18;;
38653;SDS011;24413;52.450;20.706;2023-03-01T17:53:07;179.02;;;90.57;;
38653;SDS011;24413;52.450;20.706;2023-03-01T17:55:40;214.52;;;105.70;;
38653;SDS011;24413;52.450;20.706;2023-03-01T17:58:06;200.57;;;102.22;;
38653;SDS011;24413;52.450;20.706;2023-03-01T18:00:32;194.32;;;95.80;;
38653;SDS011;24413;52.450;20.706;2023-03-01T18:02:58;184.32;;;95.50;;
38653;SDS011;24413;52.450;20.706;2023-03-01T18:05:23;182.35;;;92.70;;
38653;SDS011;24413;52.450;20.706;2023-03-01T18:07:49;205.98;;;98.85;;
38653;SDS011;24413;52.450;20.706;2023-03-01T18:10:15;178.98;;;88.55;;
38653;SDS011;24413;52.450;20.706;2023-03-01T18:43:41;480.73;;;267.92;;
38653;SDS011;24413;52.450;20.706;2023-03-01T18:46:06;464.90;;;260.30;;
38653;SDS011;24413;52.450;20.706;2023-03-01T18:48:32;449.65;;;239.75;;
38653;SDS011;24413;52.450;20.706;2023-03-01T18:50:57;463.63;;;218.50;;
38653;SDS011;24413;52.450;20.706;2023-03-01T18:53:30;536.28;;;256.85;;
38653;SDS011;24413;52.450;20.706;2023-03-01T18:55:58;420.85;;;182.93;;
38653;SDS011;24413;52.450;20.706;2023-03-01T18:58:23;257.75;;;108.32;;
38653;SDS011;24413;52.450;20.706;2023-03-01T19:00:48;173.73;;;75.35;;
38653;SDS011;24413;52.450;20.706;2023-03-01T19:03:13;145.13;;;67.65;;
38653;SDS011;24413;52.450;20.706;2023-03-01T19:05:39;146.27;;;69.32;;
38653;SDS011;24413;52.450;20.706;2023-03-01T19:08:05;151.80;;;81.32;;
38653;SDS011;24413;52.450;20.706;2023-03-01T19:10:30;151.40;;;78.97;;
38653;SDS011;24413;52.450;20.706;2023-03-01T19:12:55;106.95;;;62.38;;
38653;SDS011;24413;52.450;20.706;2023-03-01T19:28:23;356.13;;;124.93;;
38653;SDS011;24413;52.450;20.706;2023-03-01T19:33:24;201.45;;;76.25;;
38653;SDS011;24413;52.450;20.706;2023-03-01T19:35:49;338.55;;;112.30;;
38653;SDS011;24413;52.450;20.706;2023-03-01T19:38:15;676.92;;;262.02;;
38653;SDS011;24413;52.450;20.706;2023-03-01T19:40:40;639.08;;;256.35;;
38653;SDS011;24413;52.450;20.706;2023-03-01T19:43:05;614.20;;;253.85;;
38653;SDS011;24413;52.450;20.706;2023-03-01T19:45:31;516.55;;;209.35;;
38653;SDS011;24413;52.450;20.706;2023-03-01T19:47:56;547.75;;;234.10;;
38653;SDS011;24413;52.450;20.706;2023-03-01T19:50:21;562.67;;;252.52;;
38653;SDS011;24413;52.450;20.706;2023-03-01T19:52:47;363.30;;;145.57;;
38653;SDS011;24413;52.450;20.706;2023-03-01T19:55:12;201.95;;;91.07;;
38653;SDS011;24413;52.450;20.706;2023-03-01T19:57:37;146.02;;;70.85;;
38653;SDS011;24413;52.450;20.706;2023-03-01T20:00:03;110.32;;;57.65;;
38653;SDS011;24413;52.450;20.706;2023-03-01T20:02:28;110.00;;;56.17;;
38653;SDS011;24413;52.450;20.706;2023-03-01T20:04:54;100.53;;;53.25;;
38653;SDS011;24413;52.450;20.706;2023-03-01T20:07:20;94.80;;;51.78;;
38653;SDS011;24413;52.450;20.706;2023-03-01T20:09:45;99.35;;;53.97;;
38653;SDS011;24413;52.450;20.706;2023-03-01T20:12:10;108.72;;;53.08;;
38653;SDS011;24413;52.450;20.706;2023-03-01T20:14:35;105.82;;;55.83;;
38653;SDS011;24413;52.450;20.706;2023-03-01T20:17:01;105.95;;;59.00;;
38653;SDS011;24413;52.450;20.706;2023-03-01T20:19:26;113.80;;;60.38;;
38653;SDS011;24413;52.450;20.706;2023-03-01T20:21:51;148.25;;;70.45;;
38653;SDS011;24413;52.450;20.706;2023-03-01T20:24:16;127.43;;;64.97;;
38653;SDS011;24413;52.450;20.706;2023-03-01T20:26:42;122.72;;;62.13;;
38653;SDS011;24413;52.450;20.706;2023-03-01T20:29:07;116.55;;;58.45;;
38653;SDS011;24413;52.450;20.706;2023-03-01T20:31:33;105.80;;;57.75;;
38653;SDS011;24413;52.450;20.706;2023-03-01T20:33:58;110.28;;;55.10;;
38653;SDS011;24413;52.450;20.706;2023-03-01T20:36:23;92.25;;;50.58;;
38653;SDS011;24413;52.450;20.706;2023-03-01T20:38:50;97.68;;;50.53;;
38653;SDS011;24413;52.450;20.706;2023-03-01T20:41:16;91.05;;;52.15;;
38653;SDS011;24413;52.450;20.706;2023-03-01T20:43:41;97.60;;;51.42;;
38653;SDS011;24413;52.450;20.706;2023-03-01T20:46:08;102.00;;;52.58;;
38653;SDS011;24413;52.450;20.706;2023-03-01T20:48:35;86.93;;;49.38;;
38653;SDS011;24413;52.450;20.706;2023-03-01T20:51:03;93.60;;;50.17;;
38653;SDS011;24413;52.450;20.706;2023-03-01T20:53:29;100.18;;;50.92;;
38653;SDS011;24413;52.450;20.706;2023-03-01T20:55:54;100.95;;;51.53;;
38653;SDS011;24413;52.450;20.706;2023-03-01T20:58:19;95.30;;;52.83;;
38653;SDS011;24413;52.450;20.706;2023-03-01T21:00:45;101.40;;;55.95;;
38653;SDS011;24413;52.450;20.706;2023-03-01T21:03:10;103.82;;;53.70;;
38653;SDS011;24413;52.450;20.706;2023-03-01T21:05:35;113.38;;;56.45;;
38653;SDS011;24413;52.450;20.706;2023-03-01T21:08:00;101.93;;;54.17;;
38653;SDS011;24413;52.450;20.706;2023-03-01T21:10:27;107.97;;;54.47;;
38653;SDS011;24413;52.450;20.706;2023-03-01T21:12:52;100.40;;;52.38;;
38653;SDS011;24413;52.450;20.706;2023-03-01T21:15:17;112.70;;;55.53;;
38653;SDS011;24413;52.450;20.706;2023-03-01T21:17:43;120.35;;;58.75;;
38653;SDS011;24413;52.450;20.706;2023-03-01T21:20:08;133.68;;;60.40;;
38653;SDS011;24413;52.450;20.706;2023-03-01T21:22:34;134.93;;;59.50;;
38653;SDS011;24413;52.450;20.706;2023-03-01T21:24:59;115.53;;;55.65;;
38653;SDS011;24413;52.450;20.706;2023-03-01T21:27:26;101.97;;;54.88;;
38653;SDS011;24413;52.450;20.706;2023-03-01T21:29:51;113.97;;;56.15;;
38653;SDS011;24413;52.450;20.706;2023-03-01T21:32:17;112.15;;;55.75;;
38653;SDS011;24413;52.450;20.706;2023-03-01T21:34:43;107.78;;;55.42;;
38653;SDS011;24413;52.450;20.706;2023-03-01T21:37:09;92.45;;;52.28;;
38653;SDS011;24413;52.450;20.706;2023-03-01T21:39:37;89.40;;;49.30;;
38653;SDS011;24413;52.450;20.706;2023-03-01T21:42:03;99.05;;;52.15;;
38653;SDS011;24413;52.450;20.706;2023-03-01T21:44:28;102.43;;;54.13;;
38653;SDS011;24413;52.450;20.706;2023-03-01T21:46:54;102.22;;;55.35;;
38653;SDS011;24413;52.450;20.706;2023-03-01T21:49:20;106.20;;;51.20;;
38653;SDS011;24413;52.450;20.706;2023-03-01T21:51:45;95.13;;;48.38;;
38653;SDS011;24413;52.450;20.706;2023-03-01T21:54:11;101.47;;;53.47;;
38653;SDS011;24413;52.450;20.706;2023-03-01T21:56:37;122.65;;;60.92;;
38653;SDS011;24413;52.450;20.706;2023-03-01T21:59:04;118.95;;;64.60;;
38653;SDS011;24413;52.450;20.706;2023-03-01T22:01:29;120.45;;;59.25;;
38653;SDS011;24413;52.450;20.706;2023-03-01T22:03:55;113.28;;;55.50;;
38653;SDS011;24413;52.450;20.706;2023-03-01T22:06:25;116.38;;;56.03;;
38653;SDS011;24413;52.450;20.706;2023-03-01T22:09:02;128.15;;;57.97;;
38653;SDS011;24413;52.450;20.706;2023-03-01T22:11:30;113.05;;;55.33;;
38653;SDS011;24413;52.450;20.706;2023-03-01T22:13:55;108.80;;;52.30;;
38653;SDS011;24413;52.450;20.706;2023-03-01T22:16:25;97.82;;;48.25;;
38653;SDS011;24413;52.450;20.706;2023-03-01T22:18:50;100.55;;;49.03;;
38653;SDS011;24413;52.450;20.706;2023-03-01T22:21:16;108.38;;;54.45;;
38653;SDS011;24413;52.450;20.706;2023-03-01T22:23:41;148.18;;;65.65;;
38653;SDS011;24413;52.450;20.706;2023-03-01T22:26:07;148.02;;;66.32;;
38653;SDS011;24413;52.450;20.706;2023-03-01T22:28:33;113.93;;;58.15;;
38653;SDS011;24413;52.450;20.706;2023-03-01T22:31:01;111.43;;;56.22;;
38653;SDS011;24413;52.450;20.706;2023-03-01T22:33:26;116.90;;;59.28;;
38653;SDS011;24413;52.450;20.706;2023-03-01T22:35:53;158.30;;;69.88;;
38653;SDS011;24413;52.450;20.706;2023-03-01T22:38:19;167.88;;;75.03;;
38653;SDS011;24413;52.450;20.706;2023-03-01T22:40:44;144.02;;;71.20;;
38653;SDS011;24413;52.450;20.706;2023-03-01T22:43:09;135.93;;;67.03;;
38653;SDS011;24413;52.450;20.706;2023-03-01T22:45:34;116.15;;;61.90;;
38653;SDS011;24413;52.450;20.706;2023-03-01T22:48:00;116.28;;;61.92;;
38653;SDS011;24413;52.450;20.706;2023-03-01T22:50:26;108.35;;;57.22;;
38653;SDS011;24413;52.450;20.706;2023-03-01T22:52:51;122.30;;;62.42;;
38653;SDS011;24413;52.450;20.706;2023-03-01T22:55:17;114.57;;;62.28;;
38653;SDS011;24413;52.450;20.706;2023-03-01T22:57:42;136.32;;;70.45;;
38653;SDS011;24413;52.450;20.706;2023-03-01T23:00:08;180.68;;;76.03;;
38653;SDS011;24413;52.450;20.706;2023-03-01T23:02:37;123.57;;;64.95;;
38653;SDS011;24413;52.450;20.706;2023-03-01T23:05:04;112.50;;;58.40;;
38653;SDS011;24413;52.450;20.706;2023-03-01T23:07:29;119.15;;;59.92;;
38653;SDS011;24413;52.450;20.706;2023-03-01T23:09:55;113.45;;;58.33;;
38653;SDS011;24413;52.450;20.706;2023-03-01T23:12:26;111.05;;;58.15;;
38653;SDS011;24413;52.450;20.706;2023-03-01T23:14:51;129.00;;;61.40;;
38653;SDS011;24413;52.450;20.706;2023-03-01T23:17:16;157.38;;;68.45;;
38653;SDS011;24413;52.450;20.706;2023-03-01T23:19:42;117.80;;;58.70;;
38653;SDS011;24413;52.450;20.706;2023-03-01T23:22:07;114.35;;;60.08;;
38653;SDS011;24413;52.450;20.706;2023-03-01T23:24:33;103.35;;;56.47;;
38653;SDS011;24413;52.450;20.706;2023-03-01T23:26:59;119.85;;;58.90;;
38653;SDS011;24413;52.450;20.706;2023-03-01T23:29:25;100.53;;;54.42;;
38653;SDS011;24413;52.450;20.706;2023-03-01T23:31:50;103.30;;;55.95;;
38653;SDS011;24413;52.450;20.706;2023-03-01T23:34:15;91.85;;;54.13;;
38653;SDS011;24413;52.450;20.706;2023-03-01T23:36:40;112.63;;;56.35;;
38653;SDS011;24413;52.450;20.706;2023-03-01T23:39:09;106.20;;;57.63;;
38653;SDS011;24413;52.450;20.706;2023-03-01T23:41:35;108.28;;;58.80;;
38653;SDS011;24413;52.450;20.706;2023-03-01T23:44:01;100.93;;;52.45;;
38653;SDS011;24413;52.450;20.706;2023-03-01T23:46:27;103.63;;;56.70;;
38653;SDS011;24413;52.450;20.706;2023-03-01T23:48:53;106.15;;;60.45;;
38653;SDS011;24413;52.450;20.706;2023-03-01T23:51:19;115.65;;;63.60;;
38653;SDS011;24413;52.450;20.706;2023-03-01T23:53:46;116.00;;;63.92;;
38653;SDS011;24413;52.450;20.706;2023-03-01T23:56:19;102.60;;;57.42;;
38653;SDS011;24413;52.450;20.706;2023-03-01T23:58:45;111.68;;;61.38;;
